Pagrindinis puslapis
METAR-TAF:

METAR-TAF

Oro uostai :

Anapa, Rusija

platuma: 44-54N, ilguma: 037-19E, Aukštis: 53 m

Dabartinis oras

Ataskaita buvo paskelbta 40 minutes, ne 12:30 UTC
Vėjas 19 kt iš Šiaurės/Šiaurės Rytų
Temperatūra 15°C
Drėgmė 33%
Slėgis 1022 hPa
Matomumas 10 km arba daugiau
Mažai debesys

METAR: URKA 051230Z 02010MPS 9999 FEW/// 15/M01 Q1022 R04/010070 TEMPO 06012G18MPS RMK QFE763/1017

Laikas: 17:10 (13:10 UTC)

Prognozė

Ataskaita buvo paskelbta 2 valandos ir 14 minutes, ne 10:56 UTC
Prognozė galioja nuo 05 metu 12 UTC su 06 metu 12 UTC
Vėjas 16 kt iš Rytų/Šiaurės Rytų su gūsio iki 29 kt
Matomumas 10 km arba daugiau
nėra debesų žemiau 1500 m ir nėra kamuolinių lietaus debesų
Laikinai
nuo 05 metu 12 UTC su 05 metu 24 UTC
Vėjas 23 kt iš Šiaurės Rytų su gūsio iki 35 kt
Laikinai
nuo 06 metu 00 UTC su 06 metu 12 UTC
Vėjas 29 kt iš Šiaurės Rytų su gūsio iki 47 kt

TAF: URKA 051056Z 0512/0612 06008G15MPS CAVOK TEMPO 0512/0524 04012G18MPS TEMPO 0600/0612 04015G24MPS

Orai ataskaitas ir orų prognozės (METAR, TAF).

turimą stotys yra geltonos ir raudonos taškus žemėlapyje.

Perkelti pele per norėdami pamatyti stoties vardą.

Tada spustelėkite, norėdami matyti oro stebėjimo ir prognozės.

Norėdami pakeisti žemėlapį: spustelėkite ant žalios mygtukų su juodo kryžiaus žemyn,; žalią mygtuką su brūkšneliu, jei norite nutolinti; arba žalių rodyklių gretimoms žemėlapius.


METAR-TAF: